sensor_id;sensor_type;location;lat;lon;timestamp;P1;durP1;ratioP1;P2;durP2;ratioP2
76953;SDS011;65893;51.698;-0.292;2024-02-15T00:01:03;9.32;;;3.40;;
76953;SDS011;65893;51.698;-0.292;2024-02-15T00:03:30;9.30;;;4.07;;
76953;SDS011;65893;51.698;-0.292;2024-02-15T00:06:00;8.98;;;3.80;;
76953;SDS011;65893;51.698;-0.292;2024-02-15T00:08:28;8.93;;;3.40;;
76953;SDS011;65893;51.698;-0.292;2024-02-15T00:10:54;9.60;;;3.97;;
76953;SDS011;65893;51.698;-0.292;2024-02-15T00:13:20;9.05;;;3.85;;
76953;SDS011;65893;51.698;-0.292;2024-02-15T00:15:47;12.00;;;3.75;;
76953;SDS011;65893;51.698;-0.292;2024-02-15T00:18:15;6.32;;;3.13;;
76953;SDS011;65893;51.698;-0.292;2024-02-15T00:20:48;10.60;;;3.70;;
76953;SDS011;65893;51.698;-0.292;2024-02-15T00:23:14;7.53;;;2.88;;
76953;SDS011;65893;51.698;-0.292;2024-02-15T00:25:41;11.30;;;4.00;;
76953;SDS011;65893;51.698;-0.292;2024-02-15T00:28:09;8.88;;;3.50;;
76953;SDS011;65893;51.698;-0.292;2024-02-15T00:30:35;11.55;;;4.25;;
76953;SDS011;65893;51.698;-0.292;2024-02-15T00:33:02;10.05;;;4.05;;
76953;SDS011;65893;51.698;-0.292;2024-02-15T00:35:28;6.15;;;2.75;;
76953;SDS011;65893;51.698;-0.292;2024-02-15T00:37:54;8.57;;;3.75;;
76953;SDS011;65893;51.698;-0.292;2024-02-15T00:40:20;9.35;;;3.60;;
76953;SDS011;65893;51.698;-0.292;2024-02-15T00:42:46;7.70;;;3.67;;
76953;SDS011;65893;51.698;-0.292;2024-02-15T00:45:12;10.93;;;3.72;;
76953;SDS011;65893;51.698;-0.292;2024-02-15T00:47:38;8.85;;;3.42;;
76953;SDS011;65893;51.698;-0.292;2024-02-15T00:50:07;13.60;;;3.83;;
76953;SDS011;65893;51.698;-0.292;2024-02-15T00:52:33;8.63;;;3.67;;
76953;SDS011;65893;51.698;-0.292;2024-02-15T00:54:59;10.40;;;3.63;;
76953;SDS011;65893;51.698;-0.292;2024-02-15T00:57:25;8.30;;;3.75;;
76953;SDS011;65893;51.698;-0.292;2024-02-15T00:59:51;8.55;;;3.40;;
76953;SDS011;65893;51.698;-0.292;2024-02-15T01:02:18;9.35;;;3.22;;
76953;SDS011;65893;51.698;-0.292;2024-02-15T01:04:44;11.52;;;3.28;;
76953;SDS011;65893;51.698;-0.292;2024-02-15T01:07:13;7.90;;;2.90;;
76953;SDS011;65893;51.698;-0.292;2024-02-15T01:09:39;7.35;;;3.00;;
76953;SDS011;65893;51.698;-0.292;2024-02-15T01:12:05;10.98;;;3.28;;
76953;SDS011;65893;51.698;-0.292;2024-02-15T01:14:31;8.48;;;2.80;;
76953;SDS011;65893;51.698;-0.292;2024-02-15T01:16:58;7.25;;;2.90;;
76953;SDS011;65893;51.698;-0.292;2024-02-15T01:19:24;8.77;;;3.15;;
76953;SDS011;65893;51.698;-0.292;2024-02-15T01:21:50;9.23;;;3.42;;
76953;SDS011;65893;51.698;-0.292;2024-02-15T01:24:16;11.40;;;3.00;;
76953;SDS011;65893;51.698;-0.292;2024-02-15T01:26:42;8.80;;;2.95;;
76953;SDS011;65893;51.698;-0.292;2024-02-15T01:29:08;8.05;;;2.97;;
76953;SDS011;65893;51.698;-0.292;2024-02-15T01:31:37;8.68;;;3.22;;
76953;SDS011;65893;51.698;-0.292;2024-02-15T01:34:03;8.00;;;3.45;;
76953;SDS011;65893;51.698;-0.292;2024-02-15T01:36:29;11.65;;;4.38;;
76953;SDS011;65893;51.698;-0.292;2024-02-15T01:38:55;11.18;;;4.30;;
76953;SDS011;65893;51.698;-0.292;2024-02-15T01:41:21;11.43;;;4.25;;
76953;SDS011;65893;51.698;-0.292;2024-02-15T01:43:48;14.50;;;4.75;;
76953;SDS011;65893;51.698;-0.292;2024-02-15T01:46:15;12.98;;;4.78;;
76953;SDS011;65893;51.698;-0.292;2024-02-15T01:48:41;10.50;;;4.35;;
76953;SDS011;65893;51.698;-0.292;2024-02-15T01:51:09;12.00;;;4.68;;
76953;SDS011;65893;51.698;-0.292;2024-02-15T01:53:35;8.73;;;4.25;;
76953;SDS011;65893;51.698;-0.292;2024-02-15T01:56:02;9.75;;;4.13;;
76953;SDS011;65893;51.698;-0.292;2024-02-15T01:58:28;15.55;;;5.28;;
76953;SDS011;65893;51.698;-0.292;2024-02-15T02:00:58;10.27;;;4.78;;
76953;SDS011;65893;51.698;-0.292;2024-02-15T02:03:26;9.43;;;4.55;;
76953;SDS011;65893;51.698;-0.292;2024-02-15T02:05:52;13.77;;;5.60;;
76953;SDS011;65893;51.698;-0.292;2024-02-15T02:08:18;14.00;;;5.43;;
76953;SDS011;65893;51.698;-0.292;2024-02-15T02:10:44;14.77;;;5.90;;
76953;SDS011;65893;51.698;-0.292;2024-02-15T02:13:11;13.88;;;6.32;;
76953;SDS011;65893;51.698;-0.292;2024-02-15T02:15:37;15.15;;;5.90;;
76953;SDS011;65893;51.698;-0.292;2024-02-15T02:18:04;12.52;;;5.55;;
76953;SDS011;65893;51.698;-0.292;2024-02-15T02:20:31;13.88;;;5.25;;
76953;SDS011;65893;51.698;-0.292;2024-02-15T02:23:03;12.57;;;4.65;;
76953;SDS011;65893;51.698;-0.292;2024-02-15T02:25:32;12.40;;;5.25;;
76953;SDS011;65893;51.698;-0.292;2024-02-15T02:27:59;11.60;;;4.35;;
76953;SDS011;65893;51.698;-0.292;2024-02-15T02:30:25;15.48;;;4.63;;
76953;SDS011;65893;51.698;-0.292;2024-02-15T02:32:55;13.52;;;4.53;;
76953;SDS011;65893;51.698;-0.292;2024-02-15T02:35:22;9.45;;;4.35;;
76953;SDS011;65893;51.698;-0.292;2024-02-15T02:37:48;14.13;;;4.47;;
76953;SDS011;65893;51.698;-0.292;2024-02-15T02:40:14;12.20;;;4.47;;
76953;SDS011;65893;51.698;-0.292;2024-02-15T02:42:49;7.43;;;3.55;;
76953;SDS011;65893;51.698;-0.292;2024-02-15T02:45:16;10.05;;;3.35;;
76953;SDS011;65893;51.698;-0.292;2024-02-15T02:47:44;13.13;;;4.03;;
76953;SDS011;65893;51.698;-0.292;2024-02-15T02:50:10;8.05;;;3.20;;
76953;SDS011;65893;51.698;-0.292;2024-02-15T02:52:37;6.82;;;2.70;;
76953;SDS011;65893;51.698;-0.292;2024-02-15T02:55:04;8.05;;;3.00;;
76953;SDS011;65893;51.698;-0.292;2024-02-15T02:57:33;6.75;;;2.63;;
76953;SDS011;65893;51.698;-0.292;2024-02-15T03:00:00;9.93;;;2.95;;
76953;SDS011;65893;51.698;-0.292;2024-02-15T03:02:29;7.50;;;2.55;;
76953;SDS011;65893;51.698;-0.292;2024-02-15T03:04:55;7.13;;;2.85;;
76953;SDS011;65893;51.698;-0.292;2024-02-15T03:07:25;9.32;;;3.70;;
76953;SDS011;65893;51.698;-0.292;2024-02-15T03:09:51;8.07;;;3.22;;
76953;SDS011;65893;51.698;-0.292;2024-02-15T03:12:17;8.73;;;3.13;;
76953;SDS011;65893;51.698;-0.292;2024-02-15T03:14:43;9.65;;;3.90;;
76953;SDS011;65893;51.698;-0.292;2024-02-15T03:17:10;8.57;;;3.55;;
76953;SDS011;65893;51.698;-0.292;2024-02-15T03:19:36;9.95;;;4.03;;
76953;SDS011;65893;51.698;-0.292;2024-02-15T03:22:02;8.55;;;3.35;;
76953;SDS011;65893;51.698;-0.292;2024-02-15T03:24:28;10.68;;;3.90;;
76953;SDS011;65893;51.698;-0.292;2024-02-15T03:26:54;8.93;;;4.03;;
76953;SDS011;65893;51.698;-0.292;2024-02-15T03:29:20;9.30;;;3.90;;
76953;SDS011;65893;51.698;-0.292;2024-02-15T03:31:47;7.82;;;3.20;;
76953;SDS011;65893;51.698;-0.292;2024-02-15T03:34:14;8.70;;;3.28;;
76953;SDS011;65893;51.698;-0.292;2024-02-15T03:36:41;8.07;;;3.17;;
76953;SDS011;65893;51.698;-0.292;2024-02-15T03:39:07;8.35;;;3.45;;
76953;SDS011;65893;51.698;-0.292;2024-02-15T03:41:33;8.77;;;3.22;;
76953;SDS011;65893;51.698;-0.292;2024-02-15T03:43:59;11.40;;;3.95;;
76953;SDS011;65893;51.698;-0.292;2024-02-15T03:46:25;8.88;;;3.92;;
76953;SDS011;65893;51.698;-0.292;2024-02-15T03:48:53;9.82;;;3.65;;
76953;SDS011;65893;51.698;-0.292;2024-02-15T03:51:22;8.27;;;3.60;;
76953;SDS011;65893;51.698;-0.292;2024-02-15T03:53:49;8.65;;;3.15;;
76953;SDS011;65893;51.698;-0.292;2024-02-15T03:56:17;8.48;;;3.50;;
76953;SDS011;65893;51.698;-0.292;2024-02-15T03:58:43;12.15;;;3.63;;
76953;SDS011;65893;51.698;-0.292;2024-02-15T04:01:09;9.82;;;3.72;;
76953;SDS011;65893;51.698;-0.292;2024-02-15T04:03:38;10.63;;;4.00;;
76953;SDS011;65893;51.698;-0.292;2024-02-15T04:06:04;8.63;;;3.40;;
76953;SDS011;65893;51.698;-0.292;2024-02-15T04:08:31;10.82;;;3.85;;
76953;SDS011;65893;51.698;-0.292;2024-02-15T04:10:58;7.20;;;3.47;;
76953;SDS011;65893;51.698;-0.292;2024-02-15T04:13:24;9.40;;;3.25;;
76953;SDS011;65893;51.698;-0.292;2024-02-15T04:15:50;11.80;;;3.70;;
76953;SDS011;65893;51.698;-0.292;2024-02-15T04:18:18;9.50;;;3.55;;
76953;SDS011;65893;51.698;-0.292;2024-02-15T04:20:44;7.82;;;3.17;;
76953;SDS011;65893;51.698;-0.292;2024-02-15T04:23:11;8.18;;;3.60;;
76953;SDS011;65893;51.698;-0.292;2024-02-15T04:25:38;11.77;;;3.83;;
76953;SDS011;65893;51.698;-0.292;2024-02-15T04:28:05;13.98;;;4.15;;
76953;SDS011;65893;51.698;-0.292;2024-02-15T04:30:33;8.10;;;3.55;;
76953;SDS011;65893;51.698;-0.292;2024-02-15T04:33:03;11.55;;;3.83;;
76953;SDS011;65893;51.698;-0.292;2024-02-15T04:35:30;10.55;;;3.70;;
76953;SDS011;65893;51.698;-0.292;2024-02-15T04:37:56;9.70;;;3.65;;
76953;SDS011;65893;51.698;-0.292;2024-02-15T04:40:22;8.63;;;3.20;;
76953;SDS011;65893;51.698;-0.292;2024-02-15T04:42:48;9.77;;;3.60;;
76953;SDS011;65893;51.698;-0.292;2024-02-15T04:45:14;8.95;;;3.35;;
76953;SDS011;65893;51.698;-0.292;2024-02-15T04:47:43;11.55;;;3.58;;
76953;SDS011;65893;51.698;-0.292;2024-02-15T04:50:15;12.27;;;4.00;;
76953;SDS011;65893;51.698;-0.292;2024-02-15T04:52:43;9.45;;;3.95;;
76953;SDS011;65893;51.698;-0.292;2024-02-15T04:55:10;11.55;;;2.78;;
76953;SDS011;65893;51.698;-0.292;2024-02-15T04:57:36;11.23;;;3.83;;
76953;SDS011;65893;51.698;-0.292;2024-02-15T05:00:02;10.02;;;3.13;;
76953;SDS011;65893;51.698;-0.292;2024-02-15T05:02:35;9.43;;;3.67;;
76953;SDS011;65893;51.698;-0.292;2024-02-15T05:05:05;12.98;;;3.40;;
76953;SDS011;65893;51.698;-0.292;2024-02-15T05:07:32;12.27;;;3.78;;
76953;SDS011;65893;51.698;-0.292;2024-02-15T05:09:59;12.57;;;4.22;;
76953;SDS011;65893;51.698;-0.292;2024-02-15T05:12:25;9.80;;;3.35;;
76953;SDS011;65893;51.698;-0.292;2024-02-15T05:14:51;15.80;;;4.75;;
76953;SDS011;65893;51.698;-0.292;2024-02-15T05:17:18;11.15;;;4.20;;
76953;SDS011;65893;51.698;-0.292;2024-02-15T05:19:44;13.25;;;4.93;;
76953;SDS011;65893;51.698;-0.292;2024-02-15T05:22:10;18.35;;;5.38;;
76953;SDS011;65893;51.698;-0.292;2024-02-15T05:24:36;16.58;;;5.03;;
76953;SDS011;65893;51.698;-0.292;2024-02-15T05:27:04;13.13;;;4.97;;
76953;SDS011;65893;51.698;-0.292;2024-02-15T05:29:30;11.88;;;5.20;;
76953;SDS011;65893;51.698;-0.292;2024-02-15T05:31:59;12.13;;;4.40;;
76953;SDS011;65893;51.698;-0.292;2024-02-15T05:34:26;12.60;;;4.82;;
76953;SDS011;65893;51.698;-0.292;2024-02-15T05:36:54;18.80;;;5.13;;
76953;SDS011;65893;51.698;-0.292;2024-02-15T05:39:20;18.90;;;6.25;;
76953;SDS011;65893;51.698;-0.292;2024-02-15T05:41:47;11.70;;;4.78;;
76953;SDS011;65893;51.698;-0.292;2024-02-15T05:44:13;18.30;;;5.40;;
76953;SDS011;65893;51.698;-0.292;2024-02-15T05:46:44;15.75;;;5.53;;
76953;SDS011;65893;51.698;-0.292;2024-02-15T05:49:10;17.15;;;5.68;;
76953;SDS011;65893;51.698;-0.292;2024-02-15T05:51:40;18.35;;;5.80;;
76953;SDS011;65893;51.698;-0.292;2024-02-15T05:54:06;21.50;;;6.30;;
76953;SDS011;65893;51.698;-0.292;2024-02-15T05:56:32;21.85;;;6.80;;
76953;SDS011;65893;51.698;-0.292;2024-02-15T05:58:58;28.83;;;7.50;;
76953;SDS011;65893;51.698;-0.292;2024-02-15T06:01:27;22.77;;;7.20;;
76953;SDS011;65893;51.698;-0.292;2024-02-15T06:03:54;32.30;;;7.88;;
76953;SDS011;65893;51.698;-0.292;2024-02-15T06:06:21;22.73;;;8.13;;
76953;SDS011;65893;51.698;-0.292;2024-02-15T06:08:47;20.23;;;7.20;;
76953;SDS011;65893;51.698;-0.292;2024-02-15T06:11:18;27.95;;;7.78;;
76953;SDS011;65893;51.698;-0.292;2024-02-15T06:13:47;24.65;;;7.90;;
76953;SDS011;65893;51.698;-0.292;2024-02-15T06:16:13;24.00;;;7.90;;
76953;SDS011;65893;51.698;-0.292;2024-02-15T06:18:39;22.55;;;9.13;;
76953;SDS011;65893;51.698;-0.292;2024-02-15T06:21:05;26.17;;;7.75;;
76953;SDS011;65893;51.698;-0.292;2024-02-15T06:23:31;26.02;;;8.80;;
76953;SDS011;65893;51.698;-0.292;2024-02-15T06:25:58;28.95;;;9.02;;
76953;SDS011;65893;51.698;-0.292;2024-02-15T06:28:26;25.58;;;8.82;;
76953;SDS011;65893;51.698;-0.292;2024-02-15T06:31:11;35.60;;;9.15;;
76953;SDS011;65893;51.698;-0.292;2024-02-15T06:33:56;20.75;;;8.07;;
76953;SDS011;65893;51.698;-0.292;2024-02-15T06:36:41;22.70;;;8.85;;
76953;SDS011;65893;51.698;-0.292;2024-02-15T06:39:25;31.42;;;9.40;;
76953;SDS011;65893;51.698;-0.292;2024-02-15T06:42:06;24.95;;;9.55;;
76953;SDS011;65893;51.698;-0.292;2024-02-15T06:44:32;30.02;;;8.88;;
76953;SDS011;65893;51.698;-0.292;2024-02-15T06:46:58;23.48;;;7.97;;
76953;SDS011;65893;51.698;-0.292;2024-02-15T06:49:24;29.88;;;10.38;;
76953;SDS011;65893;51.698;-0.292;2024-02-15T06:51:51;29.23;;;8.57;;
76953;SDS011;65893;51.698;-0.292;2024-02-15T06:54:17;26.52;;;9.00;;
76953;SDS011;65893;51.698;-0.292;2024-02-15T06:56:43;29.10;;;9.35;;
76953;SDS011;65893;51.698;-0.292;2024-02-15T06:59:11;21.33;;;7.82;;
76953;SDS011;65893;51.698;-0.292;2024-02-15T07:01:38;27.77;;;10.35;;
76953;SDS011;65893;51.698;-0.292;2024-02-15T07:04:04;29.60;;;9.30;;
76953;SDS011;65893;51.698;-0.292;2024-02-15T07:06:30;26.95;;;8.20;;
76953;SDS011;65893;51.698;-0.292;2024-02-15T07:08:56;25.20;;;8.93;;
76953;SDS011;65893;51.698;-0.292;2024-02-15T07:11:23;30.20;;;8.05;;
76953;SDS011;65893;51.698;-0.292;2024-02-15T07:13:49;35.42;;;10.90;;
76953;SDS011;65893;51.698;-0.292;2024-02-15T07:16:18;22.80;;;9.18;;
76953;SDS011;65893;51.698;-0.292;2024-02-15T07:18:44;24.48;;;7.45;;
76953;SDS011;65893;51.698;-0.292;2024-02-15T07:21:11;29.58;;;7.32;;
76953;SDS011;65893;51.698;-0.292;2024-02-15T07:23:39;22.60;;;7.03;;
76953;SDS011;65893;51.698;-0.292;2024-02-15T07:26:06;25.23;;;7.75;;
76953;SDS011;65893;51.698;-0.292;2024-02-15T07:28:33;26.20;;;6.75;;
76953;SDS011;65893;51.698;-0.292;2024-02-15T07:30:59;25.65;;;7.60;;
76953;SDS011;65893;51.698;-0.292;2024-02-15T07:33:27;17.40;;;6.03;;
76953;SDS011;65893;51.698;-0.292;2024-02-15T07:35:54;13.88;;;6.43;;
76953;SDS011;65893;51.698;-0.292;2024-02-15T07:38:21;19.52;;;5.78;;
76953;SDS011;65893;51.698;-0.292;2024-02-15T07:40:48;17.30;;;6.90;;
76953;SDS011;65893;51.698;-0.292;2024-02-15T07:43:14;18.80;;;5.50;;
76953;SDS011;65893;51.698;-0.292;2024-02-15T07:45:40;17.73;;;7.28;;
76953;SDS011;65893;51.698;-0.292;2024-02-15T07:48:06;18.67;;;5.93;;
76953;SDS011;65893;51.698;-0.292;2024-02-15T07:50:32;17.70;;;5.30;;
76953;SDS011;65893;51.698;-0.292;2024-02-15T07:52:58;13.18;;;5.22;;
76953;SDS011;65893;51.698;-0.292;2024-02-15T07:55:24;17.30;;;5.95;;
76953;SDS011;65893;51.698;-0.292;2024-02-15T07:57:51;12.25;;;5.00;;
76953;SDS011;65893;51.698;-0.292;2024-02-15T08:00:18;20.08;;;5.25;;
76953;SDS011;65893;51.698;-0.292;2024-02-15T08:02:44;13.38;;;4.90;;
76953;SDS011;65893;51.698;-0.292;2024-02-15T08:05:11;15.40;;;5.03;;
76953;SDS011;65893;51.698;-0.292;2024-02-15T08:07:38;17.52;;;5.75;;
76953;SDS011;65893;51.698;-0.292;2024-02-15T08:10:06;16.00;;;4.68;;
76953;SDS011;65893;51.698;-0.292;2024-02-15T08:12:39;13.65;;;4.50;;
76953;SDS011;65893;51.698;-0.292;2024-02-15T08:15:06;14.38;;;4.80;;
76953;SDS011;65893;51.698;-0.292;2024-02-15T08:17:37;11.23;;;3.83;;
76953;SDS011;65893;51.698;-0.292;2024-02-15T08:20:04;11.10;;;4.55;;
76953;SDS011;65893;51.698;-0.292;2024-02-15T08:22:32;12.23;;;4.13;;
76953;SDS011;65893;51.698;-0.292;2024-02-15T08:24:58;18.48;;;4.60;;
76953;SDS011;65893;51.698;-0.292;2024-02-15T08:27:24;12.38;;;4.03;;
76953;SDS011;65893;51.698;-0.292;2024-02-15T08:29:50;13.18;;;4.03;;
76953;SDS011;65893;51.698;-0.292;2024-02-15T08:32:16;11.95;;;3.95;;
76953;SDS011;65893;51.698;-0.292;2024-02-15T08:34:42;11.57;;;4.22;;
76953;SDS011;65893;51.698;-0.292;2024-02-15T08:37:08;10.18;;;3.50;;
76953;SDS011;65893;51.698;-0.292;2024-02-15T08:39:35;10.80;;;3.33;;
76953;SDS011;65893;51.698;-0.292;2024-02-15T08:42:01;13.30;;;4.70;;
76953;SDS011;65893;51.698;-0.292;2024-02-15T08:44:29;9.45;;;3.58;;
76953;SDS011;65893;51.698;-0.292;2024-02-15T08:46:55;16.20;;;4.18;;
76953;SDS011;65893;51.698;-0.292;2024-02-15T08:49:21;11.90;;;4.22;;
76953;SDS011;65893;51.698;-0.292;2024-02-15T08:51:47;14.07;;;4.18;;
76953;SDS011;65893;51.698;-0.292;2024-02-15T08:54:13;10.52;;;4.22;;
76953;SDS011;65893;51.698;-0.292;2024-02-15T08:56:39;10.98;;;4.43;;
76953;SDS011;65893;51.698;-0.292;2024-02-15T08:59:05;11.02;;;3.80;;
76953;SDS011;65893;51.698;-0.292;2024-02-15T09:01:31;10.70;;;4.10;;
76953;SDS011;65893;51.698;-0.292;2024-02-15T09:03:58;10.02;;;4.07;;
76953;SDS011;65893;51.698;-0.292;2024-02-15T09:06:24;8.82;;;3.45;;
76953;SDS011;65893;51.698;-0.292;2024-02-15T09:08:51;11.23;;;3.38;;
76953;SDS011;65893;51.698;-0.292;2024-02-15T09:11:18;9.30;;;2.67;;
76953;SDS011;65893;51.698;-0.292;2024-02-15T09:13:44;9.75;;;2.88;;
76953;SDS011;65893;51.698;-0.292;2024-02-15T09:16:10;15.93;;;3.35;;
76953;SDS011;65893;51.698;-0.292;2024-02-15T09:18:36;11.13;;;3.50;;
76953;SDS011;65893;51.698;-0.292;2024-02-15T09:21:03;9.32;;;2.92;;
76953;SDS011;65893;51.698;-0.292;2024-02-15T09:23:31;11.57;;;3.45;;
76953;SDS011;65893;51.698;-0.292;2024-02-15T09:25:57;8.75;;;2.75;;
76953;SDS011;65893;51.698;-0.292;2024-02-15T09:28:24;6.22;;;3.15;;
76953;SDS011;65893;51.698;-0.292;2024-02-15T09:30:50;13.13;;;3.70;;
76953;SDS011;65893;51.698;-0.292;2024-02-15T09:33:17;9.05;;;2.45;;
76953;SDS011;65893;51.698;-0.292;2024-02-15T09:35:44;10.27;;;3.05;;
76953;SDS011;65893;51.698;-0.292;2024-02-15T09:38:10;7.13;;;2.80;;
76953;SDS011;65893;51.698;-0.292;2024-02-15T09:40:36;9.43;;;2.72;;
76953;SDS011;65893;51.698;-0.292;2024-02-15T09:43:02;6.43;;;2.78;;
76953;SDS011;65893;51.698;-0.292;2024-02-15T09:45:28;5.32;;;2.10;;
76953;SDS011;65893;51.698;-0.292;2024-02-15T09:47:55;6.60;;;2.22;;
76953;SDS011;65893;51.698;-0.292;2024-02-15T09:50:23;8.77;;;2.63;;
76953;SDS011;65893;51.698;-0.292;2024-02-15T09:52:50;6.68;;;2.33;;
76953;SDS011;65893;51.698;-0.292;2024-02-15T09:55:17;9.63;;;2.35;;
76953;SDS011;65893;51.698;-0.292;2024-02-15T09:57:44;10.35;;;2.67;;
76953;SDS011;65893;51.698;-0.292;2024-02-15T10:00:11;7.88;;;2.30;;
76953;SDS011;65893;51.698;-0.292;2024-02-15T10:02:42;7.72;;;2.33;;
76953;SDS011;65893;51.698;-0.292;2024-02-15T10:05:11;10.55;;;2.70;;
76953;SDS011;65893;51.698;-0.292;2024-02-15T10:07:38;8.15;;;2.42;;
76953;SDS011;65893;51.698;-0.292;2024-02-15T10:10:23;8.05;;;2.38;;
76953;SDS011;65893;51.698;-0.292;2024-02-15T10:12:51;8.85;;;2.50;;
76953;SDS011;65893;51.698;-0.292;2024-02-15T10:15:31;11.85;;;2.35;;
76953;SDS011;65893;51.698;-0.292;2024-02-15T10:17:58;12.02;;;2.45;;
76953;SDS011;65893;51.698;-0.292;2024-02-15T10:20:25;7.50;;;2.50;;
76953;SDS011;65893;51.698;-0.292;2024-02-15T10:22:52;10.63;;;2.08;;
76953;SDS011;65893;51.698;-0.292;2024-02-15T10:25:20;6.45;;;1.80;;
76953;SDS011;65893;51.698;-0.292;2024-02-15T10:27:47;6.70;;;2.13;;
76953;SDS011;65893;51.698;-0.292;2024-02-15T10:30:16;5.70;;;1.80;;
76953;SDS011;65893;51.698;-0.292;2024-02-15T10:32:43;7.72;;;2.53;;
76953;SDS011;65893;51.698;-0.292;2024-02-15T10:35:20;7.30;;;2.10;;
76953;SDS011;65893;51.698;-0.292;2024-02-15T10:37:48;7.90;;;1.95;;
76953;SDS011;65893;51.698;-0.292;2024-02-15T10:40:18;11.50;;;2.10;;
76953;SDS011;65893;51.698;-0.292;2024-02-15T10:42:46;7.32;;;1.83;;
76953;SDS011;65893;51.698;-0.292;2024-02-15T10:45:12;6.85;;;1.70;;
76953;SDS011;65893;51.698;-0.292;2024-02-15T10:47:39;5.05;;;1.65;;
76953;SDS011;65893;51.698;-0.292;2024-02-15T10:50:06;7.28;;;1.73;;
76953;SDS011;65893;51.698;-0.292;2024-02-15T10:52:33;5.10;;;1.70;;
76953;SDS011;65893;51.698;-0.292;2024-02-15T10:55:04;7.53;;;1.58;;
76953;SDS011;65893;51.698;-0.292;2024-02-15T10:57:34;7.72;;;1.85;;
76953;SDS011;65893;51.698;-0.292;2024-02-15T11:00:02;9.30;;;1.73;;
76953;SDS011;65893;51.698;-0.292;2024-02-15T11:02:49;14.63;;;2.47;;
76953;SDS011;65893;51.698;-0.292;2024-02-15T11:05:16;6.53;;;1.60;;
76953;SDS011;65893;51.698;-0.292;2024-02-15T11:07:47;3.67;;;1.30;;
76953;SDS011;65893;51.698;-0.292;2024-02-15T11:10:13;5.22;;;1.42;;
76953;SDS011;65893;51.698;-0.292;2024-02-15T11:12:42;7.93;;;2.38;;
76953;SDS011;65893;51.698;-0.292;2024-02-15T11:15:08;4.57;;;1.67;;
76953;SDS011;65893;51.698;-0.292;2024-02-15T11:20:06;15.82;;;2.03;;
76953;SDS011;65893;51.698;-0.292;2024-02-15T11:22:37;4.82;;;1.20;;
76953;SDS011;65893;51.698;-0.292;2024-02-15T11:25:06;6.90;;;1.33;;
76953;SDS011;65893;51.698;-0.292;2024-02-15T11:27:35;7.00;;;1.50;;
76953;SDS011;65893;51.698;-0.292;2024-02-15T11:32:43;7.40;;;1.65;;
76953;SDS011;65893;51.698;-0.292;2024-02-15T11:35:15;5.20;;;1.50;;
76953;SDS011;65893;51.698;-0.292;2024-02-15T11:43:06;5.35;;;1.75;;
76953;SDS011;65893;51.698;-0.292;2024-02-15T11:45:33;5.30;;;1.45;;
76953;SDS011;65893;51.698;-0.292;2024-02-15T11:48:09;7.50;;;1.95;;
76953;SDS011;65893;51.698;-0.292;2024-02-15T11:50:38;6.55;;;1.58;;
76953;SDS011;65893;51.698;-0.292;2024-02-15T11:53:05;5.93;;;1.42;;
76953;SDS011;65893;51.698;-0.292;2024-02-15T11:55:34;4.57;;;1.80;;
76953;SDS011;65893;51.698;-0.292;2024-02-15T11:58:02;8.43;;;1.65;;
76953;SDS011;65893;51.698;-0.292;2024-02-15T12:00:34;11.27;;;2.92;;
76953;SDS011;65893;51.698;-0.292;2024-02-15T12:03:19;18.15;;;2.92;;
76953;SDS011;65893;51.698;-0.292;2024-02-15T12:06:04;12.18;;;1.75;;
76953;SDS011;65893;51.698;-0.292;2024-02-15T12:08:49;7.38;;;1.67;;
76953;SDS011;65893;51.698;-0.292;2024-02-15T12:11:34;7.40;;;1.75;;
76953;SDS011;65893;51.698;-0.292;2024-02-15T12:14:19;4.80;;;1.67;;
76953;SDS011;65893;51.698;-0.292;2024-02-15T12:17:07;4.03;;;1.50;;
76953;SDS011;65893;51.698;-0.292;2024-02-15T12:19:53;5.78;;;1.17;;
76953;SDS011;65893;51.698;-0.292;2024-02-15T12:22:21;4.78;;;1.55;;
76953;SDS011;65893;51.698;-0.292;2024-02-15T12:27:20;5.75;;;1.73;;
76953;SDS011;65893;51.698;-0.292;2024-02-15T12:29:52;5.85;;;1.70;;
76953;SDS011;65893;51.698;-0.292;2024-02-15T12:32:22;7.70;;;1.85;;
76953;SDS011;65893;51.698;-0.292;2024-02-15T12:34:48;3.95;;;1.30;;
76953;SDS011;65893;51.698;-0.292;2024-02-15T12:37:17;4.75;;;1.77;;
76953;SDS011;65893;51.698;-0.292;2024-02-15T12:39:43;6.45;;;1.58;;
76953;SDS011;65893;51.698;-0.292;2024-02-15T12:42:09;8.38;;;2.30;;
76953;SDS011;65893;51.698;-0.292;2024-02-15T12:44:35;5.72;;;1.70;;
76953;SDS011;65893;51.698;-0.292;2024-02-15T12:47:01;7.32;;;1.52;;
76953;SDS011;65893;51.698;-0.292;2024-02-15T12:49:29;9.90;;;1.83;;
76953;SDS011;65893;51.698;-0.292;2024-02-15T12:52:32;8.10;;;2.00;;
76953;SDS011;65893;51.698;-0.292;2024-02-15T12:54:42;8.23;;;2.25;;
76953;SDS011;65893;51.698;-0.292;2024-02-15T12:57:09;5.68;;;2.40;;
76953;SDS011;65893;51.698;-0.292;2024-02-15T12:59:36;8.65;;;1.52;;
76953;SDS011;65893;51.698;-0.292;2024-02-15T13:02:02;4.63;;;1.70;;
76953;SDS011;65893;51.698;-0.292;2024-02-15T13:04:29;4.25;;;1.65;;
76953;SDS011;65893;51.698;-0.292;2024-02-15T13:06:56;4.25;;;1.50;;
76953;SDS011;65893;51.698;-0.292;2024-02-15T13:09:23;9.23;;;1.67;;
76953;SDS011;65893;51.698;-0.292;2024-02-15T13:11:49;4.15;;;1.20;;
76953;SDS011;65893;51.698;-0.292;2024-02-15T13:14:15;3.55;;;1.17;;
76953;SDS011;65893;51.698;-0.292;2024-02-15T13:16:42;3.30;;;1.10;;
76953;SDS011;65893;51.698;-0.292;2024-02-15T13:19:09;4.97;;;1.42;;
76953;SDS011;65893;51.698;-0.292;2024-02-15T13:21:35;4.63;;;1.70;;
76953;SDS011;65893;51.698;-0.292;2024-02-15T13:24:01;4.65;;;1.42;;
76953;SDS011;65893;51.698;-0.292;2024-02-15T13:26:30;6.93;;;1.60;;
76953;SDS011;65893;51.698;-0.292;2024-02-15T13:28:59;3.58;;;1.35;;
76953;SDS011;65893;51.698;-0.292;2024-02-15T13:31:25;4.53;;;1.40;;
76953;SDS011;65893;51.698;-0.292;2024-02-15T13:33:52;5.13;;;2.10;;
76953;SDS011;65893;51.698;-0.292;2024-02-15T13:36:18;5.90;;;1.20;;
76953;SDS011;65893;51.698;-0.292;2024-02-15T13:38:45;5.45;;;1.33;;
76953;SDS011;65893;51.698;-0.292;2024-02-15T13:41:12;5.75;;;1.58;;
76953;SDS011;65893;51.698;-0.292;2024-02-15T13:43:38;5.10;;;1.75;;
76953;SDS011;65893;51.698;-0.292;2024-02-15T13:46:06;5.15;;;1.60;;
76953;SDS011;65893;51.698;-0.292;2024-02-15T13:48:32;4.78;;;1.48;;
76953;SDS011;65893;51.698;-0.292;2024-02-15T13:50:58;7.93;;;1.75;;
76953;SDS011;65893;51.698;-0.292;2024-02-15T13:53:24;5.88;;;1.70;;
76953;SDS011;65893;51.698;-0.292;2024-02-15T13:55:50;1.83;;;0.98;;
76953;SDS011;65893;51.698;-0.292;2024-02-15T13:58:19;4.18;;;1.40;;
76953;SDS011;65893;51.698;-0.292;2024-02-15T14:00:45;7.57;;;1.80;;
76953;SDS011;65893;51.698;-0.292;2024-02-15T14:03:13;3.75;;;1.13;;
76953;SDS011;65893;51.698;-0.292;2024-02-15T14:05:40;10.73;;;1.73;;
76953;SDS011;65893;51.698;-0.292;2024-02-15T14:08:07;4.10;;;1.50;;
76953;SDS011;65893;51.698;-0.292;2024-02-15T14:10:34;3.83;;;0.90;;
76953;SDS011;65893;51.698;-0.292;2024-02-15T14:13:01;4.20;;;1.00;;
76953;SDS011;65893;51.698;-0.292;2024-02-15T14:15:28;6.22;;;1.48;;
76953;SDS011;65893;51.698;-0.292;2024-02-15T14:17:55;4.63;;;1.00;;
76953;SDS011;65893;51.698;-0.292;2024-02-15T14:20:21;9.65;;;1.50;;
76953;SDS011;65893;51.698;-0.292;2024-02-15T14:22:49;2.85;;;1.10;;
76953;SDS011;65893;51.698;-0.292;2024-02-15T14:25:21;3.20;;;1.25;;
76953;SDS011;65893;51.698;-0.292;2024-02-15T14:27:47;2.78;;;1.00;;
76953;SDS011;65893;51.698;-0.292;2024-02-15T14:30:13;2.97;;;1.40;;
76953;SDS011;65893;51.698;-0.292;2024-02-15T14:32:58;7.15;;;1.17;;
76953;SDS011;65893;51.698;-0.292;2024-02-15T14:35:33;6.60;;;1.33;;
76953;SDS011;65893;51.698;-0.292;2024-02-15T14:38:06;3.63;;;1.27;;
76953;SDS011;65893;51.698;-0.292;2024-02-15T14:40:35;5.43;;;1.50;;
76953;SDS011;65893;51.698;-0.292;2024-02-15T14:43:02;4.20;;;1.13;;
76953;SDS011;65893;51.698;-0.292;2024-02-15T14:45:32;3.03;;;0.90;;